Time;durP1;ratioP1;P1;durP2;ratioP2;P2;SDS_P1;SDS_P2;PMS_P1;PMS_P2;Temp;Humidity;BMP_temperature;BMP_pressure;BME280_temperature;BME280_humidity;BME280_pressure;Samples;Min_cycle;Max_cycle;Signal;HPM_P1;HPM_P2
2023/04/04 00:00:25;;;;;;;1.70;0.60;;;23.20;42.00;;;;;;5041206;28;20036;-62
2023/04/04 00:02:51;;;;;;;0.80;0.70;;;23.20;42.10;;;;;;5040903;28;20025;-60
2023/04/04 00:05:16;;;;;;;0.73;0.60;;;23.10;42.00;;;;;;5041009;28;20052;-62
2023/04/04 00:07:45;;;;;;;1.48;0.77;;;23.10;42.10;;;;;;5038709;28;20045;-62
2023/04/04 00:10:11;;;;;;;0.88;0.70;;;23.10;42.00;;;;;;5039780;28;20029;-62
2023/04/04 00:12:37;;;;;;;1.42;0.70;;;23.10;42.10;;;;;;5039983;28;20133;-62
2023/04/04 00:15:03;;;;;;;0.88;0.52;;;23.00;42.10;;;;;;5040153;28;20029;-62
2023/04/04 00:17:29;;;;;;;0.88;0.70;;;23.00;42.10;;;;;;5038751;28;20496;-62
2023/04/04 00:19:56;;;;;;;1.60;0.75;;;23.00;42.10;;;;;;5040158;28;20026;-62
2023/04/04 00:22:22;;;;;;;1.00;0.70;;;23.00;42.20;;;;;;5042589;28;20033;-62
2023/04/04 00:24:48;;;;;;;1.00;0.60;;;23.00;42.20;;;;;;5041088;28;20025;-62
2023/04/04 00:27:14;;;;;;;1.20;0.70;;;22.90;42.10;;;;;;5040731;28;20049;-62
2023/04/04 00:29:40;;;;;;;1.55;0.77;;;22.90;42.20;;;;;;5034528;28;20017;-62
2023/04/04 00:32:06;;;;;;;0.90;0.70;;;22.90;42.30;;;;;;5041066;28;20361;-61
2023/04/04 00:34:31;;;;;;;0.73;0.60;;;22.90;42.30;;;;;;5040362;28;20404;-62
2023/04/04 00:36:57;;;;;;;0.95;0.65;;;22.90;42.20;;;;;;5038267;28;20030;-61
2023/04/04 00:39:25;;;;;;;1.70;0.77;;;22.80;42.20;;;;;;5039668;28;20029;-62
2023/04/04 00:41:51;;;;;;;1.77;0.70;;;22.80;42.30;;;;;;5042525;28;20033;-61
2023/04/04 00:44:17;;;;;;;1.33;0.68;;;22.80;42.30;;;;;;5040431;28;20578;-62
2023/04/04 00:46:43;;;;;;;1.45;0.70;;;22.80;42.30;;;;;;5037924;28;20045;-62
2023/04/04 00:49:08;;;;;;;1.17;0.63;;;22.80;42.40;;;;;;5037803;28;20397;-62
2023/04/04 00:51:34;;;;;;;1.40;0.70;;;22.70;42.30;;;;;;5040255;28;20474;-62
2023/04/04 00:54:01;;;;;;;0.82;0.57;;;22.70;42.40;;;;;;5039055;28;20112;-62
2023/04/04 00:56:27;;;;;;;0.70;0.65;;;22.70;42.40;;;;;;5036776;28;20109;-62
2023/04/04 00:58:54;;;;;;;1.10;0.70;;;22.70;42.50;;;;;;5034578;28;20528;-62
2023/04/04 01:01:20;;;;;;;1.27;0.70;;;22.70;42.40;;;;;;5037281;28;20030;-62
2023/04/04 01:03:46;;;;;;;0.80;0.60;;;22.70;42.50;;;;;;5038678;28;20127;-62
2023/04/04 01:06:14;;;;;;;1.48;0.88;;;22.60;42.40;;;;;;5040935;28;20116;-62
2023/04/04 01:08:40;;;;;;;0.63;0.60;;;22.60;42.40;;;;;;5040841;28;20095;-62
2023/04/04 01:11:06;;;;;;;0.90;0.70;;;22.60;42.50;;;;;;5040778;28;20021;-62
2023/04/04 01:13:32;;;;;;;0.75;0.70;;;22.60;42.50;;;;;;5038569;28;20025;-62
2023/04/04 01:15:59;;;;;;;0.80;0.60;;;22.60;42.50;;;;;;5039215;28;20067;-62
2023/04/04 01:18:26;;;;;;;1.23;0.65;;;22.60;42.50;;;;;;5036947;28;20060;-62
2023/04/04 01:21:06;;;;;;;0.88;0.65;;;22.50;42.50;;;;;;5038620;28;20079;-60
2023/04/04 01:24:01;;;;;;;0.95;0.70;;;22.50;42.40;;;;;;5035560;28;20489;-62
2023/04/04 01:26:28;;;;;;;0.80;0.63;;;22.50;42.50;;;;;;5034579;28;20038;-61
2023/04/04 01:28:55;;;;;;;0.75;0.60;;;22.50;42.50;;;;;;5040276;28;20504;-62
2023/04/04 01:31:34;;;;;;;1.05;0.60;;;22.50;42.50;;;;;;5035842;28;20067;-62
2023/04/04 01:34:22;;;;;;;1.05;0.60;;;22.50;42.60;;;;;;5041217;28;20219;-61
2023/04/04 01:37:24;;;;;;;1.00;0.60;;;22.40;42.50;;;;;;5037191;28;20116;-62
2023/04/04 01:39:56;;;;;;;0.70;0.60;;;22.40;42.50;;;;;;4987521;28;20041;-61
2023/04/04 01:42:23;;;;;;;0.88;0.63;;;22.40;42.50;;;;;;5037206;28;20029;-62
2023/04/04 01:44:55;;;;;;;0.90;0.60;;;22.40;42.60;;;;;;5037331;28;20108;-61
2023/04/04 01:47:20;;;;;;;1.10;0.65;;;22.40;42.60;;;;;;5039569;28;20028;-62
2023/04/04 01:49:46;;;;;;;1.58;0.60;;;22.30;42.60;;;;;;5039642;28;20035;-62
2023/04/04 01:52:12;;;;;;;1.05;0.60;;;22.30;42.60;;;;;;5040179;28;20025;-62
2023/04/04 01:54:38;;;;;;;1.70;0.50;;;22.30;42.60;;;;;;5041097;28;20377;-61
2023/04/04 01:57:03;;;;;;;0.98;0.60;;;22.30;42.60;;;;;;5039470;28;20162;-62
2023/04/04 01:59:29;;;;;;;1.70;0.52;;;22.30;42.70;;;;;;5036516;28;20036;-61
2023/04/04 02:01:55;;;;;;;1.40;0.70;;;22.30;42.60;;;;;;5033321;28;20017;-62
2023/04/04 02:04:20;;;;;;;1.10;0.60;;;22.30;42.60;;;;;;5037381;28;20024;-62
2023/04/04 02:06:46;;;;;;;0.77;0.60;;;22.30;42.60;;;;;;5039267;28;20025;-62
2023/04/04 02:09:12;;;;;;;1.38;0.65;;;22.30;43.20;;;;;;5038101;28;20032;-62
2023/04/04 02:11:37;;;;;;;0.63;0.52;;;22.30;42.70;;;;;;5040281;28;20473;-62
2023/04/04 02:14:04;;;;;;;0.70;0.70;;;22.20;42.70;;;;;;5036114;28;20476;-61
2023/04/04 02:16:29;;;;;;;1.15;0.70;;;22.20;42.70;;;;;;5038741;28;20473;-62
2023/04/04 02:18:55;;;;;;;0.60;0.60;;;22.20;42.70;;;;;;5035206;28;20026;-61
2023/04/04 02:21:21;;;;;;;0.70;0.60;;;22.20;42.70;;;;;;5035294;28;20025;-61
2023/04/04 02:23:47;;;;;;;0.70;0.70;;;22.20;42.80;;;;;;5037953;28;20037;-62
2023/04/04 02:26:12;;;;;;;0.88;0.63;;;22.10;42.70;;;;;;5038856;28;20104;-62
2023/04/04 02:28:38;;;;;;;1.00;0.70;;;22.10;42.70;;;;;;5038024;28;20051;-62
2023/04/04 02:31:03;;;;;;;1.20;0.60;;;22.10;42.70;;;;;;5038880;28;20468;-62
2023/04/04 02:33:29;;;;;;;1.08;0.63;;;22.10;42.80;;;;;;5039968;28;20029;-61
2023/04/04 02:35:59;;;;;;;0.93;0.60;;;22.10;42.80;;;;;;5038644;28;20032;-62
2023/04/04 02:38:25;;;;;;;;;;;22.10;42.80;;;;;;5041126;28;20033;-62
2023/04/04 02:40:51;;;;;;;0.70;0.50;;;22.10;42.80;;;;;;5037217;28;20390;-61
2023/04/04 02:43:17;;;;;;;1.65;0.70;;;22.00;42.70;;;;;;5038382;28;20029;-61
2023/04/04 02:45:42;;;;;;;0.75;0.60;;;22.00;42.80;;;;;;5038725;28;20029;-62
2023/04/04 02:48:09;;;;;;;0.70;0.60;;;22.00;42.80;;;;;;5036043;28;20476;-62
2023/04/04 02:50:35;;;;;;;1.00;0.60;;;22.00;42.90;;;;;;5039612;28;20026;-61
2023/04/04 02:53:02;;;;;;;1.00;0.60;;;22.00;42.90;;;;;;5038903;28;20030;-61
2023/04/04 02:55:27;;;;;;;0.77;0.50;;;22.00;42.90;;;;;;5037934;28;20036;-62
2023/04/04 02:57:53;;;;;;;0.70;0.52;;;22.00;42.90;;;;;;5035389;28;20481;-61
2023/04/04 03:00:19;;;;;;;0.60;0.60;;;21.90;42.90;;;;;;5038441;28;20029;-62
2023/04/04 03:02:47;;;;;;;0.60;0.50;;;21.90;42.90;;;;;;5037553;28;20056;-62
2023/04/04 03:05:13;;;;;;;0.52;0.50;;;21.90;42.90;;;;;;5035881;28;20061;-61
2023/04/04 03:07:39;;;;;;;0.70;0.50;;;21.90;42.90;;;;;;5037288;28;20071;-62
2023/04/04 03:10:05;;;;;;;0.70;0.60;;;21.90;42.90;;;;;;5037894;28;20026;-61
2023/04/04 03:12:31;;;;;;;0.88;0.57;;;21.90;43.00;;;;;;5041660;28;20045;-61
2023/04/04 03:14:56;;;;;;;1.52;0.63;;;21.90;43.00;;;;;;5040465;28;20106;-61
2023/04/04 03:17:22;;;;;;;1.10;0.60;;;21.90;43.00;;;;;;5040438;28;20461;-62
2023/04/04 03:19:47;;;;;;;1.00;0.60;;;21.90;43.00;;;;;;5042688;28;20113;-62
2023/04/04 03:22:13;;;;;;;0.98;0.70;;;21.90;43.00;;;;;;5041441;28;20028;-62
2023/04/04 03:24:39;;;;;;;0.43;0.43;;;21.80;43.00;;;;;;5038188;28;20075;-62
2023/04/04 03:27:04;;;;;;;0.60;0.50;;;21.80;43.00;;;;;;5040781;28;20039;-61
2023/04/04 03:29:31;;;;;;;0.50;0.50;;;21.80;43.00;;;;;;5042099;28;20048;-62
2023/04/04 03:31:56;;;;;;;0.77;0.63;;;21.80;43.00;;;;;;5039463;28;20022;-62
2023/04/04 03:34:23;;;;;;;0.70;0.60;;;21.80;43.10;;;;;;5043068;28;20033;-61
2023/04/04 03:36:50;;;;;;;0.70;0.60;;;21.80;43.10;;;;;;5043409;28;20346;-61
2023/04/04 03:39:16;;;;;;;0.95;0.60;;;21.70;43.10;;;;;;5039866;28;20089;-61
2023/04/04 03:41:41;;;;;;;0.82;0.60;;;21.70;43.10;;;;;;5042823;28;20107;-62
2023/04/04 03:44:07;;;;;;;0.85;0.55;;;21.70;43.10;;;;;;5042348;28;20480;-62
2023/04/04 03:46:33;;;;;;;1.02;0.43;;;21.70;43.10;;;;;;5042183;28;20113;-62
2023/04/04 03:48:59;;;;;;;0.63;0.50;;;21.70;43.20;;;;;;5041703;28;20044;-62
2023/04/04 03:51:26;;;;;;;1.10;0.60;;;21.70;43.20;;;;;;5037956;28;20111;-62
2023/04/04 03:53:52;;;;;;;0.63;0.60;;;21.70;43.20;;;;;;5038963;28;20025;-62
2023/04/04 03:56:18;;;;;;;0.50;0.47;;;21.70;43.20;;;;;;5041942;28;20484;-62
2023/04/04 03:58:44;;;;;;;0.40;0.40;;;21.70;43.20;;;;;;5041908;28;20025;-61
2023/04/04 04:01:10;;;;;;;0.80;0.60;;;21.70;43.20;;;;;;5040372;28;20029;-62
2023/04/04 04:03:36;;;;;;;0.60;0.50;;;21.70;43.20;;;;;;5040008;28;20111;-62
2023/04/04 04:06:02;;;;;;;0.68;0.50;;;21.60;43.80;;;;;;5041712;28;20519;-62
2023/04/04 04:08:27;;;;;;;0.60;0.50;;;21.60;43.20;;;;;;5040573;28;20431;-62
2023/04/04 04:10:53;;;;;;;1.48;0.70;;;21.60;43.20;;;;;;5040027;28;20427;-62
2023/04/04 04:13:19;;;;;;;0.88;0.70;;;21.60;43.30;;;;;;5041357;28;20094;-62
2023/04/04 04:15:45;;;;;;;0.60;0.60;;;21.60;43.30;;;;;;5041852;28;20036;-62
2023/04/04 04:18:10;;;;;;;0.47;0.40;;;21.60;43.30;;;;;;5037058;28;20033;-62
2023/04/04 04:20:36;;;;;;;0.60;0.60;;;21.60;43.30;;;;;;5040587;28;20099;-60
2023/04/04 04:23:02;;;;;;;0.73;0.60;;;21.60;43.30;;;;;;5040302;28;20024;-61
2023/04/04 04:25:27;;;;;;;0.50;0.50;;;21.60;43.30;;;;;;5038025;28;20109;-61
2023/04/04 04:27:56;;;;;;;0.65;0.60;;;21.50;43.30;;;;;;5038804;28;20028;-61
2023/04/04 04:30:22;;;;;;;0.80;0.60;;;21.50;43.30;;;;;;5039773;28;20040;-61
2023/04/04 04:32:49;;;;;;;0.68;0.52;;;21.60;43.40;;;;;;5037090;28;20041;-61
2023/04/04 04:35:15;;;;;;;1.02;0.65;;;21.50;43.40;;;;;;5043604;28;20036;-61
2023/04/04 04:37:40;;;;;;;0.73;0.60;;;21.50;43.40;;;;;;5040502;28;20024;-61
2023/04/04 04:40:08;;;;;;;0.70;0.50;;;21.50;43.30;;;;;;5034449;28;20106;-61
2023/04/04 04:42:33;;;;;;;0.85;0.52;;;21.50;43.40;;;;;;5039741;28;20456;-61
2023/04/04 04:44:59;;;;;;;0.50;0.50;;;21.50;43.40;;;;;;5039943;28;20025;-62
2023/04/04 04:47:25;;;;;;;0.50;0.50;;;21.50;43.40;;;;;;5040950;28;20105;-61
2023/04/04 04:49:50;;;;;;;1.08;0.60;;;21.50;43.40;;;;;;5039666;28;20073;-61
2023/04/04 04:52:18;;;;;;;1.08;0.60;;;21.50;43.40;;;;;;5040357;28;20076;-61
2023/04/04 04:54:43;;;;;;;0.75;0.60;;;21.50;43.40;;;;;;5039796;28;20033;-62
2023/04/04 04:57:09;;;;;;;0.77;0.57;;;21.40;43.40;;;;;;5038551;28;20083;-61
2023/04/04 04:59:35;;;;;;;0.45;0.45;;;21.50;43.50;;;;;;5043542;28;20076;-63
2023/04/04 05:02:01;;;;;;;0.60;0.60;;;21.50;43.50;;;;;;5041383;28;20027;-63
2023/04/04 05:04:27;;;;;;;0.45;0.45;;;21.40;43.40;;;;;;5040572;28;20396;-62
2023/04/04 05:06:52;;;;;;;0.60;0.60;;;21.40;43.40;;;;;;5037852;28;20041;-63
2023/04/04 05:09:18;;;;;;;1.05;0.60;;;21.40;44.00;;;;;;5038551;28;20063;-62
2023/04/04 05:11:44;;;;;;;1.02;0.70;;;21.40;43.50;;;;;;5039026;28;20056;-62
2023/04/04 05:14:09;;;;;;;0.93;0.60;;;21.40;43.50;;;;;;5039473;28;20175;-62
2023/04/04 05:16:35;;;;;;;0.93;0.60;;;21.40;43.50;;;;;;5040655;28;20029;-61
2023/04/04 05:19:01;;;;;;;0.50;0.50;;;21.40;43.50;;;;;;5039218;28;20101;-63
2023/04/04 05:21:26;;;;;;;0.63;0.57;;;21.40;43.60;;;;;;5039542;28;20594;-62
2023/04/04 05:23:52;;;;;;;0.82;0.70;;;21.40;43.60;;;;;;5039040;28;20483;-62
2023/04/04 05:26:18;;;;;;;0.98;0.63;;;21.40;43.60;;;;;;5042828;28;20045;-63
2023/04/04 05:28:43;;;;;;;0.50;0.50;;;21.40;43.60;;;;;;5036337;28;20037;-62
2023/04/04 05:31:09;;;;;;;0.88;0.60;;;21.40;43.60;;;;;;5036603;28;20148;-62
2023/04/04 05:33:35;;;;;;;0.90;0.60;;;21.30;43.60;;;;;;5036387;28;20033;-62
2023/04/04 05:36:00;;;;;;;0.77;0.50;;;21.30;43.70;;;;;;5035782;28;20465;-62
2023/04/04 05:38:26;;;;;;;0.80;0.60;;;21.40;43.70;;;;;;5040137;28;20021;-62
2023/04/04 05:40:54;;;;;;;0.52;0.52;;;21.40;43.70;;;;;;5039914;28;20025;-62
2023/04/04 05:43:20;;;;;;;0.50;0.50;;;21.30;43.70;;;;;;5038440;28;20100;-62
2023/04/04 05:45:46;;;;;;;0.88;0.50;;;21.30;43.70;;;;;;5036104;28;20139;-62
2023/04/04 05:48:11;;;;;;;0.47;0.47;;;21.30;43.70;;;;;;5039706;28;20048;-62
2023/04/04 05:50:37;;;;;;;1.63;0.73;;;21.30;43.70;;;;;;5039558;28;20539;-62
2023/04/04 05:53:03;;;;;;;1.05;0.60;;;21.30;43.70;;;;;;5040699;28;20033;-62
2023/04/04 05:55:29;;;;;;;1.13;0.70;;;21.30;44.20;;;;;;5037854;28;20032;-61
2023/04/04 05:57:56;;;;;;;0.60;0.60;;;21.30;43.60;;;;;;5038605;28;20405;-62
2023/04/04 06:00:21;;;;;;;0.57;0.55;;;21.30;43.60;;;;;;5039733;28;20052;-61
2023/04/04 06:02:47;;;;;;;0.93;0.60;;;21.30;43.50;;;;;;5038200;28;20064;-62
2023/04/04 06:05:13;;;;;;;0.77;0.70;;;21.30;43.50;;;;;;5037274;28;20040;-62
2023/04/04 06:07:39;;;;;;;0.77;0.60;;;21.30;43.40;;;;;;5037830;28;20028;-62
2023/04/04 06:10:06;;;;;;;1.20;0.70;;;21.30;43.40;;;;;;5037269;28;20028;-62
2023/04/04 06:12:31;;;;;;;0.98;0.60;;;21.30;43.40;;;;;;5038695;28;20503;-61
2023/04/04 06:14:57;;;;;;;0.75;0.63;;;21.20;43.30;;;;;;5038221;28;20128;-62
2023/04/04 06:17:23;;;;;;;1.13;0.60;;;21.30;43.40;;;;;;5039014;28;20029;-62
2023/04/04 06:19:49;;;;;;;0.90;0.50;;;21.30;43.40;;;;;;5037618;28;20527;-61
2023/04/04 06:22:16;;;;;;;0.98;0.63;;;21.20;43.40;;;;;;5038765;28;20021;-61
2023/04/04 06:24:42;;;;;;;0.75;0.60;;;21.30;43.50;;;;;;5038333;28;20022;-62
2023/04/04 06:27:08;;;;;;;1.02;0.70;;;21.30;43.50;;;;;;5038842;28;20040;-62
2023/04/04 06:29:33;;;;;;;0.50;0.50;;;21.30;43.50;;;;;;5038563;28;20064;-62
2023/04/04 06:31:59;;;;;;;1.38;0.60;;;21.20;43.40;;;;;;5038654;28;20061;-61
2023/04/04 06:34:25;;;;;;;0.93;0.60;;;21.20;43.50;;;;;;5035068;28;20026;-62
2023/04/04 06:36:51;;;;;;;0.82;0.60;;;21.20;43.50;;;;;;5038959;28;20029;-61
2023/04/04 06:39:17;;;;;;;0.68;0.50;;;21.20;43.50;;;;;;5038750;28;20342;-62
2023/04/04 06:41:42;;;;;;;1.25;0.80;;;21.20;43.50;;;;;;5037311;28;20152;-62
2023/04/04 06:44:08;;;;;;;1.17;0.80;;;21.20;43.50;;;;;;5038594;28;20022;-62
2023/04/04 06:46:36;;;;;;;0.88;0.70;;;21.20;43.50;;;;;;5039615;28;20112;-62
2023/04/04 06:49:02;;;;;;;0.75;0.65;;;21.20;43.60;;;;;;5042499;28;20045;-61
2023/04/04 06:51:28;;;;;;;1.05;0.75;;;21.20;43.60;;;;;;5044102;28;20037;-62
2023/04/04 06:53:55;;;;;;;1.00;0.60;;;21.20;43.60;;;;;;5041473;28;20087;-63
2023/04/04 06:56:22;;;;;;;0.73;0.60;;;21.20;43.60;;;;;;5040349;28;20030;-62
2023/04/04 06:58:48;;;;;;;1.10;0.80;;;21.20;44.20;;;;;;5042752;28;20385;-62
2023/04/04 07:01:14;;;;;;;0.80;0.60;;;21.20;44.20;;;;;;5047387;28;20040;-63
2023/04/04 07:03:39;;;;;;;0.70;0.60;;;21.20;43.70;;;;;;5043879;28;20083;-62
2023/04/04 07:06:05;;;;;;;1.10;0.70;;;21.20;43.70;;;;;;5042311;28;20029;-61
2023/04/04 07:08:32;;;;;;;0.52;0.50;;;21.20;43.70;;;;;;5041754;28;20053;-62
2023/04/04 07:10:59;;;;;;;0.70;0.50;;;21.20;43.80;;;;;;5043262;28;20038;-62
2023/04/04 07:13:25;;;;;;;1.17;0.80;;;21.20;43.80;;;;;;5041847;28;20578;-62
2023/04/04 07:15:51;;;;;;;2.00;0.75;;;21.20;43.80;;;;;;5025338;28;20385;-62
2023/04/04 07:18:16;;;;;;;0.85;0.60;;;21.20;43.80;;;;;;5038961;28;20017;-62
2023/04/04 07:20:44;;;;;;;0.75;0.60;;;21.20;43.80;;;;;;5037454;28;20033;-62
2023/04/04 07:23:10;;;;;;;0.82;0.60;;;21.20;43.90;;;;;;5041721;28;20508;-63
2023/04/04 07:25:37;;;;;;;0.60;0.60;;;21.20;43.90;;;;;;5039782;28;20037;-63
2023/04/04 07:28:02;;;;;;;1.00;0.60;;;21.20;43.90;;;;;;5039779;28;20041;-63
2023/04/04 07:30:31;;;;;;;2.25;0.60;;;21.20;43.90;;;;;;5047326;28;20052;-62
2023/04/04 07:32:57;;;;;;;1.80;0.77;;;21.20;43.90;;;;;;5039178;28;20044;-62
2023/04/04 07:35:23;;;;;;;1.55;0.70;;;21.20;43.90;;;;;;5040106;28;20025;-62
2023/04/04 07:37:49;;;;;;;0.85;0.65;;;21.20;44.00;;;;;;5038561;28;20080;-62
2023/04/04 07:40:15;;;;;;;1.27;0.75;;;21.20;43.90;;;;;;5042045;28;20469;-62
2023/04/04 07:42:50;;;;;;;1.80;0.60;;;21.20;44.00;;;;;;5041623;28;20033;-62
2023/04/04 07:45:17;;;;;;;0.75;0.60;;;21.20;44.00;;;;;;5069742;28;20025;-62
2023/04/04 07:47:45;;;;;;;0.75;0.70;;;21.20;44.00;;;;;;5041641;28;20504;-62
2023/04/04 07:50:12;;;;;;;1.50;0.70;;;21.20;44.00;;;;;;5040663;28;20092;-62
2023/04/04 07:52:38;;;;;;;1.50;0.70;;;21.20;44.00;;;;;;5040667;28;20133;-63
2023/04/04 07:55:06;;;;;;;0.90;0.70;;;21.20;44.10;;;;;;5043259;28;20441;-63
2023/04/04 07:57:32;;;;;;;0.82;0.70;;;21.20;44.00;;;;;;5041708;28;20036;-62
2023/04/04 07:59:58;;;;;;;1.48;0.80;;;21.20;44.10;;;;;;5042204;28;20032;-62
2023/04/04 08:02:24;;;;;;;2.40;0.80;;;21.20;44.10;;;;;;5040252;28;20071;-62
2023/04/04 08:04:50;;;;;;;1.85;0.80;;;21.20;44.10;;;;;;5045291;28;20025;-62
2023/04/04 08:07:15;;;;;;;1.70;0.90;;;21.20;44.20;;;;;;5039852;28;20890;-62
2023/04/04 08:09:41;;;;;;;1.77;0.80;;;21.20;44.10;;;;;;5041131;28;20492;-62
2023/04/04 08:12:07;;;;;;;1.45;0.90;;;21.20;44.20;;;;;;5038767;28;20121;-62
2023/04/04 08:14:33;;;;;;;1.58;0.80;;;21.20;44.10;;;;;;5038481;28;20044;-63
2023/04/04 08:16:58;;;;;;;1.25;0.80;;;21.20;44.10;;;;;;5042655;28;20028;-62
2023/04/04 08:19:24;;;;;;;1.13;0.80;;;21.20;44.30;;;;;;5043012;28;20465;-62
2023/04/04 08:21:50;;;;;;;2.63;0.80;;;21.10;44.20;;;;;;5039974;28;20029;-62
2023/04/04 08:24:16;;;;;;;0.77;0.60;;;21.20;44.20;;;;;;5040562;28;20029;-62
2023/04/04 08:26:42;;;;;;;1.95;0.90;;;21.10;44.10;;;;;;5047478;28;20052;-62
2023/04/04 08:29:07;;;;;;;1.20;0.70;;;21.20;44.20;;;;;;5038770;28;20060;-63
2023/04/04 08:31:33;;;;;;;1.35;0.63;;;21.20;44.20;;;;;;5037345;28;20028;-62
2023/04/04 08:34:01;;;;;;;1.48;0.77;;;21.20;44.30;;;;;;5040550;28;20033;-63
2023/04/04 08:36:27;;;;;;;1.70;0.70;;;21.20;44.30;;;;;;5042176;28;20481;-62
2023/04/04 08:38:53;;;;;;;0.98;0.60;;;21.20;44.20;;;;;;5039539;28;20029;-63
2023/04/04 08:41:18;;;;;;;1.58;0.70;;;21.20;44.30;;;;;;5039900;28;20091;-62
2023/04/04 08:43:53;;;;;;;1.75;0.70;;;21.20;44.30;;;;;;5042753;28;20473;-62
2023/04/04 08:46:20;;;;;;;1.25;0.70;;;21.20;44.40;;;;;;5040606;28;20060;-62
2023/04/04 08:48:47;;;;;;;1.38;0.70;;;21.20;44.30;;;;;;5040434;28;20092;-62
2023/04/04 08:51:14;;;;;;;3.40;0.63;;;21.20;44.30;;;;;;5038956;28;20033;-63
2023/04/04 08:53:40;;;;;;;1.75;0.93;;;21.20;44.20;;;;;;5036224;28;20120;-62
2023/04/04 08:56:06;;;;;;;0.98;0.65;;;21.20;44.20;;;;;;5038052;28;20100;-63
2023/04/04 08:58:32;;;;;;;1.58;0.80;;;21.20;44.20;;;;;;5040451;28;20072;-63
2023/04/04 09:00:57;;;;;;;1.38;0.77;;;21.20;44.20;;;;;;5042296;28;20038;-63
2023/04/04 09:03:29;;;;;;;1.48;0.75;;;21.10;44.20;;;;;;5038149;28;20035;-62
2023/04/04 09:05:55;;;;;;;1.67;0.80;;;21.20;44.20;;;;;;5040341;28;20505;-62
2023/04/04 09:08:25;;;;;;;1.42;0.80;;;21.20;44.30;;;;;;5039372;28;20083;-62
2023/04/04 09:10:51;;;;;;;1.42;0.75;;;21.20;44.20;;;;;;5039043;28;20025;-62
2023/04/04 09:13:18;;;;;;;1.00;0.70;;;21.20;44.30;;;;;;5038146;28;20473;-63
2023/04/04 09:15:51;;;;;;;1.35;0.80;;;21.20;44.30;;;;;;5040460;28;20033;-63
2023/04/04 09:18:17;;;;;;;1.77;0.80;;;21.20;44.10;;;;;;5041469;28;20029;-63
2023/04/04 09:20:44;;;;;;;1.17;0.80;;;21.20;44.10;;;;;;5038111;28;20028;-62
2023/04/04 09:23:12;;;;;;;1.38;0.70;;;21.20;44.10;;;;;;5039641;28;20025;-62
2023/04/04 09:25:48;;;;;;;1.88;0.70;;;21.20;44.00;;;;;;5040801;28;20031;-63
2023/04/04 09:28:14;;;;;;;1.50;0.90;;;21.20;44.10;;;;;;5037331;28;20382;-63
2023/04/04 09:30:42;;;;;;;1.75;0.77;;;21.20;44.00;;;;;;5039171;28;20036;-62
2023/04/04 09:33:10;;;;;;;1.23;0.70;;;21.20;44.00;;;;;;5038009;28;20025;-63
2023/04/04 09:35:37;;;;;;;1.23;0.63;;;21.20;44.10;;;;;;5036932;28;20030;-63
2023/04/04 09:38:05;;;;;;;3.63;0.80;;;21.20;44.20;;;;;;5039526;28;20017;-62
2023/04/04 09:40:31;;;;;;;1.90;0.90;;;21.20;44.00;;;;;;5039629;28;20025;-62
2023/04/04 09:43:00;;;;;;;1.60;0.88;;;21.20;44.00;;;;;;5039677;28;20174;-62
2023/04/04 09:45:29;;;;;;;1.40;0.70;;;21.20;44.00;;;;;;5041749;28;20052;-63
2023/04/04 09:47:55;;;;;;;0.95;0.75;;;21.20;44.00;;;;;;5038970;28;20060;-62
2023/04/04 09:50:23;;;;;;;1.83;0.60;;;21.20;44.00;;;;;;5040091;28;20500;-62
2023/04/04 09:52:49;;;;;;;1.20;0.80;;;21.20;44.00;;;;;;5038871;28;20052;-63
2023/04/04 09:55:15;;;;;;;1.65;0.80;;;21.20;44.00;;;;;;5038508;28;20033;-62
2023/04/04 09:57:41;;;;;;;1.55;0.80;;;21.20;44.60;;;;;;5034071;28;20089;-62
2023/04/04 10:00:08;;;;;;;2.38;1.15;;;21.20;44.10;;;;;;5039929;28;20319;-63
2023/04/04 10:02:36;;;;;;;1.05;0.60;;;21.20;44.10;;;;;;5038063;28;20025;-62
2023/04/04 10:05:09;;;;;;;1.80;0.90;;;21.20;44.10;;;;;;5036898;28;20029;-63
2023/04/04 10:07:38;;;;;;;1.60;0.90;;;21.20;44.10;;;;;;5035232;28;20108;-62
2023/04/04 10:10:08;;;;;;;1.30;0.80;;;21.20;44.20;;;;;;5038890;28;20106;-62
2023/04/04 10:12:36;;;;;;;1.35;0.73;;;21.20;44.10;;;;;;5041234;28;20032;-62
2023/04/04 10:15:02;;;;;;;2.13;1.00;;;21.20;44.10;;;;;;5039978;28;20116;-63
2023/04/04 10:17:47;;;;;;;1.65;0.90;;;21.20;44.20;;;;;;5037075;28;20544;-62
2023/04/04 10:20:13;;;;;;;1.13;0.80;;;21.20;44.10;;;;;;5037109;28;20077;-62
2023/04/04 10:22:39;;;;;;;1.60;1.00;;;21.20;44.20;;;;;;5041085;28;20037;-63
2023/04/04 10:25:06;;;;;;;1.77;0.88;;;21.20;44.10;;;;;;5041238;28;20029;-63
2023/04/04 10:27:33;;;;;;;1.05;0.80;;;21.20;44.20;;;;;;5042362;28;20132;-63
2023/04/04 10:30:02;;;;;;;1.33;0.90;;;21.20;44.20;;;;;;5042145;28;20033;-63
2023/04/04 10:32:48;;;;;;;3.03;1.00;;;21.20;44.20;;;;;;5042997;28;20037;-62
2023/04/04 10:35:14;;;;;;;2.60;1.00;;;21.20;44.20;;;;;;5042931;28;20048;-62
2023/04/04 10:37:56;;;;;;;1.85;1.05;;;21.20;44.10;;;;;;5043677;28;20373;-62
2023/04/04 10:40:26;;;;;;;1.20;0.70;;;21.20;44.10;;;;;;5039813;28;20115;-62
2023/04/04 10:42:54;;;;;;;1.23;0.80;;;21.20;44.20;;;;;;5041253;28;20382;-63
2023/04/04 10:45:20;;;;;;;2.60;1.10;;;21.20;44.20;;;;;;5041577;28;20026;-63
2023/04/04 10:47:46;;;;;;;1.40;1.00;;;21.20;44.20;;;;;;5042572;28;20386;-63
2023/04/04 10:50:12;;;;;;;1.88;1.00;;;21.20;44.20;;;;;;5043678;28;20037;-62
2023/04/04 10:52:42;;;;;;;2.38;0.90;;;21.20;44.20;;;;;;5040962;28;20025;-62
2023/04/04 10:55:11;;;;;;;1.58;0.90;;;21.20;44.20;;;;;;5040939;28;20116;-62
2023/04/04 10:57:41;;;;;;;1.77;0.95;;;21.20;44.20;;;;;;5042557;28;20025;-62
2023/04/04 11:00:09;;;;;;;0.98;0.75;;;21.20;44.20;;;;;;5041723;28;20394;-62
2023/04/04 11:03:00;;;;;;;2.23;1.00;;;21.20;44.20;;;;;;5042996;28;20025;-63
2023/04/04 11:05:49;;;;;;;1.75;0.88;;;21.20;44.40;;;;;;5040513;28;20036;-62
2023/04/04 11:08:18;;;;;;;1.92;0.80;;;21.20;44.20;;;;;;5041453;28;20033;-62
2023/04/04 11:10:47;;;;;;;1.25;0.88;;;21.20;44.30;;;;;;5043964;28;20056;-63
2023/04/04 11:13:24;;;;;;;1.38;0.88;;;21.20;44.30;;;;;;5044202;28;20055;-63
2023/04/04 11:16:03;;;;;;;1.58;0.90;;;21.20;44.30;;;;;;5041350;28;20033;-62
2023/04/04 11:18:37;;;;;;;1.52;0.90;;;21.20;44.30;;;;;;5043875;28;20055;-62
2023/04/04 11:21:06;;;;;;;1.40;0.80;;;21.20;44.40;;;;;;5039940;28;20024;-62
2023/04/04 11:23:47;;;;;;;1.23;0.90;;;21.20;44.40;;;;;;5043218;28;20044;-62
2023/04/04 11:26:33;;;;;;;1.92;0.77;;;21.20;44.40;;;;;;5041756;28;20160;-63
2023/04/04 11:29:07;;;;;;;1.17;0.73;;;21.20;44.40;;;;;;5039928;28;20049;-63
2023/04/04 11:31:33;;;;;;;1.48;0.90;;;21.20;44.40;;;;;;5039548;28;20072;-63
2023/04/04 11:34:04;;;;;;;1.55;0.80;;;21.20;44.40;;;;;;5042797;28;20618;-63
2023/04/04 11:36:41;;;;;;;1.65;0.90;;;21.20;44.40;;;;;;5038748;28;20905;-64
2023/04/04 11:39:07;;;;;;;1.55;0.90;;;21.20;44.50;;;;;;5038339;28;20064;-63
2023/04/04 11:41:51;;;;;;;1.35;0.90;;;21.20;44.40;;;;;;5037412;28;20453;-64
2023/04/04 11:44:18;;;;;;;1.55;0.73;;;21.20;44.50;;;;;;5038780;28;20342;-63
2023/04/04 11:46:46;;;;;;;1.25;0.77;;;21.20;44.50;;;;;;5040703;28;20029;-63
2023/04/04 11:49:13;;;;;;;1.63;0.95;;;21.30;44.60;;;;;;5042066;28;20473;-63
2023/04/04 11:51:39;;;;;;;1.63;1.00;;;21.20;44.50;;;;;;5043490;28;20484;-63
2023/04/04 11:54:14;;;;;;;2.15;0.90;;;21.20;44.50;;;;;;5040773;28;20102;-63
2023/04/04 11:56:43;;;;;;;1.65;0.90;;;21.30;44.60;;;;;;5041575;28;20025;-61
2023/04/04 11:59:10;;;;;;;1.80;0.90;;;21.30;45.10;;;;;;5040384;28;20536;-63
2023/04/04 12:01:37;;;;;;;2.03;0.90;;;21.30;44.80;;;;;;5040941;28;20048;-63
2023/04/04 12:04:03;;;;;;;2.80;1.10;;;21.30;44.90;;;;;;5036685;28;20030;-63
2023/04/04 12:06:34;;;;;;;1.58;0.80;;;21.30;44.90;;;;;;5038811;28;20164;-62
2023/04/04 12:09:02;;;;;;;2.08;1.02;;;21.30;45.00;;;;;;5045665;28;20036;-63
2023/04/04 12:11:29;;;;;;;1.55;0.93;;;21.30;45.00;;;;;;5042047;28;20476;-63
2023/04/04 12:13:56;;;;;;;2.50;1.00;;;21.30;45.10;;;;;;5038197;28;20025;-62
2023/04/04 12:16:22;;;;;;;1.88;1.00;;;21.30;45.10;;;;;;5035388;28;20520;-63
2023/04/04 12:18:48;;;;;;;1.67;1.00;;;21.40;45.20;;;;;;5038166;28;20411;-63
2023/04/04 12:21:14;;;;;;;1.50;1.00;;;21.30;45.40;;;;;;5040425;28;20025;-63
2023/04/04 12:23:40;;;;;;;1.67;1.05;;;21.30;45.30;;;;;;5040463;28;20059;-63
2023/04/04 12:26:08;;;;;;;2.47;1.05;;;21.40;45.70;;;;;;5038656;28;20028;-62
2023/04/04 12:28:36;;;;;;;1.85;1.08;;;21.40;45.20;;;;;;5040692;28;20424;-63
2023/04/04 12:31:07;;;;;;;1.80;1.00;;;21.40;45.60;;;;;;5039969;28;20048;-62
2023/04/04 12:33:33;;;;;;;1.48;0.90;;;21.40;45.30;;;;;;5041117;28;20032;-61
2023/04/04 12:36:02;;;;;;;1.75;0.90;;;21.40;45.20;;;;;;5037566;28;20029;-63
2023/04/04 12:38:29;;;;;;;2.28;1.08;;;21.40;45.10;;;;;;5042352;28;20121;-63
2023/04/04 12:40:55;;;;;;;1.55;0.98;;;21.40;45.00;;;;;;5039748;28;20595;-63
2023/04/04 12:43:21;;;;;;;2.28;0.90;;;21.50;45.00;;;;;;5041263;28;20029;-63
2023/04/04 12:45:50;;;;;;;3.78;1.00;;;21.50;44.80;;;;;;5038035;28;20032;-62
2023/04/04 12:48:16;;;;;;;1.90;1.00;;;21.60;44.70;;;;;;5039591;28;20116;-63